Time;durP1;ratioP1;P1;durP2;ratioP2;P2;SDS_P1;SDS_P2;PMS_P1;PMS_P2;Temp;Humidity;BMP_temperature;BMP_pressure;BME280_temperature;BME280_humidity;BME280_pressure;Samples;Min_cycle;Max_cycle;Signal;HPM_P1;HPM_P2
2021/08/13 00:02:04;;;;;;;;;12.00;10.00;;;;;23.39;62.08;101713.84;5052609;28;45450;-58
2021/08/13 00:04:30;;;;;;;;;12.25;10.50;;;;;23.32;61.94;101710.75;5057799;28;46424;-57
2021/08/13 00:06:55;;;;;;;;;11.75;10.50;;;;;23.32;61.71;101713.41;5057497;28;45538;-58
2021/08/13 00:09:24;;;;;;;;;13.25;10.75;;;;;23.30;62.17;101717.09;5057984;28;45713;-59
2021/08/13 00:11:50;;;;;;;;;13.25;10.75;;;;;23.25;61.97;101713.91;5054277;28;45292;-59
2021/08/13 00:14:15;;;;;;;;;9.25;9.25;;;;;23.24;62.01;101718.38;5052825;28;46269;-58
2021/08/13 00:16:41;;;;;;;;;13.50;11.00;;;;;23.23;61.50;101714.03;5052236;28;45384;-58
2021/08/13 00:19:07;;;;;;;;;11.75;10.25;;;;;23.20;61.48;101706.22;5052200;28;45478;-59
2021/08/13 00:21:33;;;;;;;;;10.00;10.00;;;;;23.22;61.55;101725.53;5052685;28;45241;-59
2021/08/13 00:24:00;;;;;;;;;13.25;10.75;;;;;23.16;61.68;101715.34;5052502;28;46394;-59
2021/08/13 00:26:29;;;;;;;;;10.50;10.50;;;;;23.13;61.37;101736.75;5054660;28;45351;-59
2021/08/13 00:28:55;;;;;;;;;16.00;13.50;;;;;23.11;61.69;101740.47;5059897;28;45450;-58
2021/08/13 00:31:21;;;;;;;;;15.50;10.75;;;;;23.04;61.67;101734.72;5055767;28;45498;-58
2021/08/13 00:33:46;;;;;;;;;11.50;10.00;;;;;22.99;61.23;101739.44;5053222;28;45469;-59
2021/08/13 00:36:11;;;;;;;;;15.00;13.00;;;;;22.94;61.46;101738.88;5059386;28;45406;-59
2021/08/13 00:38:37;;;;;;;;;16.00;10.00;;;;;22.90;61.84;101732.94;5060303;28;45313;-58
2021/08/13 00:41:03;;;;;;;;;13.75;12.00;;;;;22.92;62.03;101736.34;5053178;28;45427;-58
2021/08/13 00:43:29;;;;;;;;;11.50;10.50;;;;;22.85;61.88;101731.53;5054323;28;46899;-57
2021/08/13 00:45:54;;;;;;;;;13.25;12.25;;;;;22.87;61.64;101734.94;5055920;28;45353;-57
2021/08/13 00:48:19;;;;;;;;;13.75;11.00;;;;;22.91;61.69;101731.13;5051883;28;45678;-57
2021/08/13 00:50:45;;;;;;;;;15.00;12.00;;;;;22.87;61.70;101729.63;5053870;28;45530;-57
2021/08/13 00:53:11;;;;;;;;;13.25;11.25;;;;;22.81;62.35;101737.91;5055381;28;46139;-57
2021/08/13 00:55:37;;;;;;;;;14.25;12.25;;;;;22.74;63.42;101738.31;5051835;28;45713;-58
2021/08/13 00:58:02;;;;;;;;;11.50;11.25;;;;;22.68;62.53;101740.50;5056553;28;46012;-57
2021/08/13 01:00:28;;;;;;;;;14.25;9.50;;;;;22.64;62.15;101739.84;5059433;28;45379;-57
2021/08/13 01:02:54;;;;;;;;;13.50;11.75;;;;;22.60;62.67;101746.25;5051989;28;46096;-57
2021/08/13 01:05:20;;;;;;;;;14.00;11.50;;;;;22.60;62.33;101742.75;5049938;28;45673;-58
2021/08/13 01:07:45;;;;;;;;;12.75;10.25;;;;;22.59;62.67;101739.25;5051327;28;45405;-58
2021/08/13 01:10:11;;;;;;;;;16.50;11.00;;;;;22.56;62.54;101734.16;5061168;28;45339;-58
2021/08/13 01:12:51;;;;;;;;;12.25;11.00;;;;;22.54;62.67;101730.75;5060970;28;45325;-59
2021/08/13 01:15:18;;;;;;;;;14.25;11.00;;;;;22.54;62.66;101727.25;5061374;28;45699;-59
2021/08/13 01:17:48;;;;;;;;;12.00;10.75;;;;;22.51;62.75;101733.59;5060982;28;45279;-59
2021/08/13 01:20:25;;;;;;;;;13.00;10.00;;;;;22.49;63.49;101739.94;5060871;28;45376;-59
2021/08/13 01:23:12;;;;;;;;;13.00;11.00;;;;;22.42;62.97;101739.44;5060964;28;46392;-59
2021/08/13 01:25:42;;;;;;;;;14.75;10.75;;;;;22.42;63.08;101739.44;5060894;28;45258;-59
2021/08/13 01:28:17;;;;;;;;;12.50;12.50;;;;;22.39;62.82;101737.84;5061192;28;45588;-59
2021/08/13 01:30:42;;;;;;;;;12.75;11.00;;;;;22.38;63.13;101744.06;5060802;28;45323;-59
2021/08/13 01:33:12;;;;;;;;;13.25;12.25;;;;;22.32;63.69;101733.00;5059527;28;46585;-58
2021/08/13 01:35:42;;;;;;;;;10.25;10.00;;;;;22.24;63.64;101733.50;5060360;28;45558;-59
2021/08/13 01:38:15;;;;;;;;;12.50;10.00;;;;;22.24;63.64;101730.00;5061108;28;45288;-60
2021/08/13 01:40:43;;;;;;;;;13.00;10.75;;;;;22.22;63.27;101730.06;5060751;28;45402;-59
2021/08/13 01:43:11;;;;;;;;;14.50;12.25;;;;;22.19;63.51;101732.91;5060679;28;46747;-59
2021/08/13 01:45:37;;;;;;;;;12.25;12.25;;;;;22.16;63.52;101736.59;5060421;28;45294;-59
2021/08/13 01:48:04;;;;;;;;;15.50;10.25;;;;;22.16;63.56;101746.31;5060626;28;45278;-60
2021/08/13 01:50:30;;;;;;;;;12.75;10.50;;;;;22.14;64.05;101742.91;5060163;28;45428;-60
2021/08/13 01:52:58;;;;;;;;;13.50;10.75;;;;;22.12;64.10;101743.00;5060635;28;45537;-59
2021/08/13 01:55:25;;;;;;;;;13.00;9.50;;;;;22.04;64.00;101732.03;5060269;28;45627;-60
2021/08/13 01:57:50;;;;;;;;;13.25;11.50;;;;;21.99;64.04;101731.41;5060787;28;45309;-59
2021/08/13 02:00:19;;;;;;;;;10.75;10.75;;;;;21.92;64.48;101732.72;5060262;28;45343;-58
2021/08/13 02:02:46;;;;;;;;;10.50;10.00;;;;;21.94;63.96;101741.44;5060200;28;45292;-58
2021/08/13 02:05:15;;;;;;;;;8.50;8.50;;;;;21.91;63.75;101728.38;5060030;28;45365;-58
2021/08/13 02:07:42;;;;;;;;;11.75;9.25;;;;;21.92;64.06;101734.53;5060423;28;45316;-58
2021/08/13 02:10:09;;;;;;;;;11.50;11.25;;;;;21.89;64.79;101740.00;5059511;28;45447;-58
2021/08/13 02:12:35;;;;;;;;;11.00;10.00;;;;;21.82;64.52;101747.41;5059403;28;46360;-58
2021/08/13 02:15:01;;;;;;;;;12.25;10.25;;;;;21.75;64.94;101741.66;5060220;28;45250;-58
2021/08/13 02:17:29;;;;;;;;;14.75;13.25;;;;;21.71;64.57;101749.88;5058987;28;45367;-58
2021/08/13 02:20:02;;;;;;;;;14.50;13.25;;;;;21.71;64.89;101749.88;5059618;28;45316;-58
2021/08/13 02:22:28;;;;;;;;;14.00;11.25;;;;;21.72;64.91;101739.19;5058902;28;45348;-58
2021/08/13 02:24:53;;;;;;;;;12.25;10.75;;;;;21.73;65.08;101737.41;5059547;28;45292;-58
2021/08/13 02:27:19;;;;;;;;;15.50;11.00;;;;;21.72;64.78;101725.97;5058983;28;45619;-58
2021/08/13 02:29:45;;;;;;;;;13.00;13.00;;;;;21.75;64.45;101735.50;5059519;28;45416;-59
2021/08/13 02:32:11;;;;;;;;;13.50;12.25;;;;;21.76;64.68;101731.91;5058639;28;46027;-59
2021/08/13 02:34:36;;;;;;;;;10.50;9.75;;;;;21.75;64.83;101735.50;5059149;28;45267;-59
2021/08/13 02:37:05;;;;;;;;;12.25;10.50;;;;;21.73;64.83;101743.53;5059311;28;45227;-59
2021/08/13 02:39:49;;;;;;;;;12.50;11.50;;;;;21.70;65.57;101738.44;5059450;28;45452;-58
2021/08/13 02:42:20;;;;;;;;;11.75;11.00;;;;;21.70;65.26;101734.94;5063798;28;46226;-59
2021/08/13 02:44:52;;;;;;;;;10.75;10.00;;;;;21.66;64.78;101734.25;5064603;28;45248;-59
2021/08/13 02:47:18;;;;;;;;;11.00;8.00;;;;;21.64;65.00;101735.28;5059273;28;45346;-58
2021/08/13 02:49:55;;;;;;;;;11.00;10.00;;;;;21.65;64.34;101734.34;5059690;28;45532;-58
2021/08/13 02:52:27;;;;;;;;;10.00;10.00;;;;;21.66;64.30;101742.19;5059421;28;46912;-58
2021/08/13 02:54:57;;;;;;;;;13.50;9.50;;;;;21.62;64.52;101750.38;5058060;28;45481;-58
2021/08/13 02:57:25;;;;;;;;;12.00;11.25;;;;;21.61;64.96;101746.88;5059796;28;45341;-58
2021/08/13 02:59:54;;;;;;;;;11.75;11.25;;;;;21.60;64.82;101739.88;5059507;28;45586;-58
2021/08/13 03:02:22;;;;;;;;;12.75;10.25;;;;;21.58;64.98;101743.56;5059805;28;45461;-59
2021/08/13 03:04:50;;;;;;;;;12.50;11.50;;;;;21.61;65.08;101753.97;5059214;28;45255;-60
2021/08/13 03:07:17;;;;;;;;;14.00;11.25;;;;;21.58;65.22;101746.22;5059487;28;45358;-59
2021/08/13 03:09:44;;;;;;;;;10.50;10.50;;;;;21.55;65.10;101756.03;5060236;28;45181;-61
2021/08/13 03:12:10;;;;;;;;;13.25;10.75;;;;;21.54;64.79;101751.69;5057788;28;47283;-59
2021/08/13 03:14:36;;;;;;;;;9.50;9.50;;;;;21.51;65.46;101743.06;5058431;28;45402;-60
2021/08/13 03:17:02;;;;;;;;;12.00;9.75;;;;;21.52;65.54;101747.41;5058867;28;45646;-59
2021/08/13 03:19:27;;;;;;;;;15.75;10.25;;;;;21.51;65.21;101743.06;5057556;28;45460;-59
2021/08/13 03:21:53;;;;;;;;;11.00;8.75;;;;;21.47;65.17;101746.84;5061086;28;45222;-59
2021/08/13 03:24:19;;;;;;;;;13.00;10.00;;;;;21.47;65.16;101752.97;5061271;28;45257;-60
2021/08/13 03:26:45;;;;;;;;;9.50;9.00;;;;;21.45;65.29;101754.88;5061846;28;45395;-60
2021/08/13 03:29:11;;;;;;;;;16.25;12.00;;;;;21.45;65.11;101759.31;5061125;28;45375;-60
2021/08/13 03:31:43;;;;;;;;;10.25;10.00;;;;;21.46;64.74;101745.13;5061694;28;47044;-60
2021/08/13 03:34:10;;;;;;;;;14.75;11.50;;;;;21.46;64.91;101748.63;5061389;28;45374;-60
2021/08/13 03:36:37;;;;;;;;;13.75;11.50;;;;;21.43;64.73;101745.31;5062471;28;45238;-60
2021/08/13 03:39:08;;;;;;;;;11.25;9.75;;;;;21.39;65.04;101749.03;5060501;28;45609;-60
2021/08/13 03:41:35;;;;;;;;;12.25;9.25;;;;;21.35;64.93;101752.81;5061382;28;46185;-59
2021/08/13 03:44:00;;;;;;;;;12.25;9.00;;;;;21.28;64.45;101751.47;5062648;28;45396;-59
2021/08/13 03:46:26;;;;;;;;;10.00;8.00;;;;;21.28;64.75;101754.09;5061510;28;45411;-59
2021/08/13 03:48:51;;;;;;;;;11.75;9.50;;;;;21.21;64.67;101743.81;5062217;28;45286;-60
2021/08/13 03:51:17;;;;;;;;;11.25;10.50;;;;;21.19;64.37;101745.69;5062409;28;46037;-59
2021/08/13 03:53:42;;;;;;;;;12.25;10.75;;;;;21.19;64.40;101750.13;5061924;28;45331;-60
2021/08/13 03:56:08;;;;;;;;;11.50;10.50;;;;;21.19;64.63;101750.13;5062638;28;45312;-61
2021/08/13 03:58:33;;;;;;;;;16.25;12.25;;;;;21.18;64.67;101756.38;5062196;28;45286;-59
2021/08/13 04:00:58;;;;;;;;;12.50;10.00;;;;;21.15;64.46;101753.91;5062466;28;46026;-60
2021/08/13 04:03:24;;;;;;;;;13.25;12.00;;;;;21.17;64.85;101752.88;5061978;28;45301;-58
2021/08/13 04:05:49;;;;;;;;;11.00;11.00;;;;;21.15;64.73;101756.53;5060978;28;45376;-59
2021/08/13 04:08:14;;;;;;;;;12.25;11.25;;;;;21.12;65.14;101762.00;5062034;28;45527;-59
2021/08/13 04:10:40;;;;;;;;;11.00;10.00;;;;;21.09;64.33;101767.47;5062144;28;45320;-61
2021/08/13 04:13:05;;;;;;;;;11.75;9.75;;;;;21.07;65.06;101764.06;5061816;28;45314;-61
2021/08/13 04:15:31;;;;;;;;;13.75;12.00;;;;;21.02;64.71;101768.72;5062223;28;45235;-61
2021/08/13 04:17:56;;;;;;;;;9.00;8.00;;;;;20.98;64.46;101775.09;5060357;28;45411;-57
2021/08/13 04:20:22;;;;;;;;;10.25;8.00;;;;;20.97;64.84;101771.63;5061754;28;46305;-60
2021/08/13 04:22:47;;;;;;;;;9.25;8.00;;;;;20.91;64.50;101774.59;5061950;28;45234;-59
2021/08/13 04:25:13;;;;;;;;;10.50;8.75;;;;;20.90;64.38;101778.19;5062384;28;45391;-60
2021/08/13 04:27:38;;;;;;;;;17.50;10.75;;;;;20.87;64.77;101776.56;5061612;28;45438;-60
2021/08/13 04:30:06;;;;;;;;;10.75;9.75;;;;;20.85;64.78;101780.22;5061673;28;45377;-60
2021/08/13 04:32:35;;;;;;;;;16.00;10.25;;;;;20.86;64.79;101784.56;5060058;28;45680;-60
2021/08/13 04:35:01;;;;;;;;;11.75;9.00;;;;;20.75;65.12;101774.56;5061669;28;45296;-60
2021/08/13 04:37:26;;;;;;;;;8.75;7.75;;;;;20.73;65.55;101775.59;5061600;28;45201;-60
2021/08/13 04:39:51;;;;;;;;;11.50;11.25;;;;;20.68;65.41;101775.84;5061844;28;45252;-60
2021/08/13 04:42:17;;;;;;;;;10.00;9.00;;;;;20.68;65.20;101773.19;5061562;28;45429;-60
2021/08/13 04:44:42;;;;;;;;;10.50;10.50;;;;;20.64;65.16;101772.50;5061849;28;45288;-60
2021/08/13 04:47:07;;;;;;;;;15.75;12.25;;;;;20.58;66.19;101777.25;5061218;28;45611;-60
2021/08/13 04:49:33;;;;;;;;;9.50;8.00;;;;;20.56;66.93;101781.75;5061299;28;45304;-60
2021/08/13 04:51:59;;;;;;;;;13.00;9.25;;;;;20.50;66.28;101776.81;5060972;28;45235;-60
2021/08/13 04:54:24;;;;;;;;;10.25;8.25;;;;;20.48;66.37;101784.81;5061277;28;45355;-60
2021/08/13 04:56:50;;;;;;;;;10.50;10.50;;;;;20.45;66.13;101782.34;5061559;28;45413;-60
2021/08/13 04:59:15;;;;;;;;;8.75;8.25;;;;;20.46;66.40;101785.84;5061316;28;47156;-60
2021/08/13 05:01:40;;;;;;;;;10.25;10.00;;;;;20.45;66.42;101786.75;5061191;28;45326;-60
2021/08/13 05:04:07;;;;;;;;;11.75;9.50;;;;;20.46;66.54;101802.53;5061391;28;45320;-60
2021/08/13 05:06:32;;;;;;;;;14.50;11.50;;;;;20.44;66.31;101793.84;5060745;28;45417;-60
2021/08/13 05:08:58;;;;;;;;;10.75;8.75;;;;;20.41;66.40;101798.41;5061051;28;46277;-60
2021/08/13 05:11:23;;;;;;;;;10.50;9.00;;;;;20.40;67.00;101799.28;5060097;28;46470;-60
2021/08/13 05:13:49;;;;;;;;;13.50;11.25;;;;;20.41;66.89;101803.69;5061040;28;45539;-59
2021/08/13 05:16:14;;;;;;;;;12.00;11.25;;;;;20.43;66.23;101807.13;5060226;28;45239;-60
2021/08/13 05:18:39;;;;;;;;;13.50;11.25;;;;;20.49;66.29;101806.78;5060154;28;46096;-60
2021/08/13 05:21:06;;;;;;;;;9.25;9.25;;;;;20.51;67.03;101815.50;5059388;28;45415;-60
2021/08/13 05:23:31;;;;;;;;;14.50;11.50;;;;;20.47;66.70;101819.22;5060762;28;45224;-60
2021/08/13 05:26:00;;;;;;;;;19.50;13.50;;;;;20.48;67.26;101828.84;5059627;28;45282;-60
2021/08/13 05:28:26;;;;;;;;;52.75;28.00;;;;;20.49;67.16;101825.28;5060338;28;45484;-60
2021/08/13 05:30:51;;;;;;;;;14.75;11.00;;;;;20.50;67.52;101835.75;5059500;28;45433;-60
2021/08/13 05:33:17;;;;;;;;;22.25;12.00;;;;;20.53;67.03;101840.88;5060187;28;45234;-59
2021/08/13 05:35:42;;;;;;;;;9.00;8.25;;;;;20.57;66.92;101844.22;5059302;28;45552;-59
2021/08/13 05:38:07;;;;;;;;;37.50;25.75;;;;;20.60;66.49;101841.41;5059980;28;46199;-60
2021/08/13 05:40:33;;;;;;;;;14.00;13.25;;;;;20.60;66.30;101841.41;5058996;28;45298;-60
2021/08/13 05:42:59;;;;;;;;;39.00;23.25;;;;;20.63;66.69;101849.19;5060480;28;45326;-60
2021/08/13 05:45:25;;;;;;;;;12.00;10.75;;;;;20.63;66.78;101843.91;5059556;28;45293;-60
2021/08/13 05:47:51;;;;;;;;;14.00;9.25;;;;;20.63;66.39;101844.78;5060707;28;45631;-59
2021/08/13 05:50:17;;;;;;;;;13.50;11.25;;;;;20.60;67.18;101839.63;5059123;28;45470;-61
2021/08/13 05:52:44;;;;;;;;;24.00;16.50;;;;;20.60;66.90;101839.63;5060729;28;45383;-62
2021/08/13 05:55:10;;;;;;;;;17.00;12.25;;;;;20.67;66.22;101845.47;5060392;28;45248;-62
2021/08/13 05:57:35;;;;;;;;;16.50;12.50;;;;;20.71;66.57;101848.78;5060441;28;45180;-61
2021/08/13 06:00:01;;;;;;;;;11.25;11.25;;;;;20.75;66.59;101856.47;5052602;28;45352;-61
2021/08/13 06:02:26;;;;;;;;;15.00;12.75;;;;;20.81;66.61;101857.91;5051255;28;45502;-61
2021/08/13 06:04:51;;;;;;;;;14.75;9.00;;;;;20.81;66.15;101857.91;5051599;28;45479;-61
2021/08/13 06:07:17;;;;;;;;;15.75;9.75;;;;;20.83;65.79;101851.66;5050226;28;45410;-61
2021/08/13 06:09:42;;;;;;;;;20.50;10.50;;;;;20.90;65.64;101837.16;5052740;28;45357;-60
2021/08/13 06:12:08;;;;;;;;;12.50;10.75;;;;;20.96;65.13;101839.47;5055216;28;45458;-60
2021/08/13 06:14:33;;;;;;;;;11.25;9.00;;;;;21.10;65.08;101844.03;5051974;28;45315;-60
2021/08/13 06:17:00;;;;;;;;;11.50;9.00;;;;;21.12;64.62;101851.88;5051357;28;45300;-60
2021/08/13 06:19:26;;;;;;;;;11.25;9.75;;;;;21.18;64.75;101860.31;5059758;28;45264;-63
2021/08/13 06:21:51;;;;;;;;;15.25;10.25;;;;;21.29;64.37;101865.06;5056745;28;45594;-61
2021/08/13 06:24:16;;;;;;;;;14.25;10.00;;;;;21.43;64.22;101870.47;5060017;28;45403;-63
2021/08/13 06:26:41;;;;;;;;;13.00;11.50;;;;;21.49;64.27;101867.47;5059997;28;45296;-62
2021/08/13 06:29:07;;;;;;;;;9.00;7.50;;;;;21.55;63.66;101867.13;5059413;28;45207;-64
2021/08/13 06:31:32;;;;;;;;;14.50;8.50;;;;;21.65;62.98;101874.56;5059683;28;45343;-64
2021/08/13 06:33:58;;;;;;;;;12.25;10.00;;;;;21.75;63.12;101873.09;5059285;28;45153;-63
2021/08/13 06:36:23;;;;;;;;;10.25;10.00;;;;;21.94;62.16;101884.34;5057676;28;47159;-64
2021/08/13 06:38:49;;;;;;;;;11.00;10.25;;;;;22.07;61.81;101888.06;5059165;28;45425;-61
2021/08/13 06:41:14;;;;;;;;;6.75;5.25;;;;;22.11;60.62;101892.22;5059815;28;45265;-60
2021/08/13 06:43:40;;;;;;;;;10.25;7.00;;;;;22.09;60.47;101894.09;5059251;28;45234;-60
2021/08/13 06:46:05;;;;;;;;;10.75;9.00;;;;;22.15;60.81;101890.25;5058927;28;45328;-60
2021/08/13 06:48:30;;;;;;;;;7.75;6.00;;;;;22.17;59.73;101898.94;5054104;28;45343;-60
2021/08/13 06:50:56;;;;;;;;;10.50;7.75;;;;;22.19;60.03;101899.72;5056138;28;45556;-60
2021/08/13 06:53:21;;;;;;;;;9.00;7.25;;;;;22.19;59.70;101886.47;5059012;28;45472;-61
2021/08/13 06:55:47;;;;;;;;;12.75;8.25;;;;;22.17;59.52;101899.81;5058286;28;45340;-60
2021/08/13 06:58:12;;;;;;;;;8.00;6.75;;;;;22.16;59.46;101895.44;5059716;28;45404;-61
2021/08/13 07:00:37;;;;;;;;;8.75;7.25;;;;;22.20;59.63;101888.19;5051536;28;45423;-61
2021/08/13 07:03:04;;;;;;;;;14.50;7.50;;;;;22.26;59.53;101882.53;5064089;28;48124;-60
2021/08/13 07:05:29;;;;;;;;;6.00;6.00;;;;;22.27;59.44;101894.00;5049620;28;46234;-60
2021/08/13 07:07:54;;;;;;;;;12.25;8.00;;;;;22.34;59.78;101898.84;5053892;28;45457;-60
2021/08/13 07:10:20;;;;;;;;;3.75;3.75;;;;;22.43;59.06;101900.09;5054260;28;45300;-60
2021/08/13 07:12:45;;;;;;;;;8.25;6.50;;;;;22.49;58.90;101904.19;5050074;28;45334;-60
2021/08/13 07:15:11;;;;;;;;;6.75;5.00;;;;;22.55;58.88;101907.31;5048773;28;45311;-61
2021/08/13 07:17:38;;;;;;;;;5.50;5.00;;;;;22.62;58.60;101913.09;5048566;28;45613;-60
2021/08/13 07:20:06;;;;;;;;;7.00;5.00;;;;;22.65;58.24;101915.59;5049724;28;45272;-61
2021/08/13 07:22:32;;;;;;;;;5.50;5.25;;;;;22.64;58.49;101912.09;5048111;28;45316;-60
2021/08/13 07:24:58;;;;;;;;;6.00;4.50;;;;;22.68;58.20;101913.59;5048195;28;46368;-60
2021/08/13 07:27:23;;;;;;;;;9.25;5.75;;;;;22.73;58.09;101916.81;5048878;28;45588;-60
2021/08/13 07:29:49;;;;;;;;;7.75;6.75;;;;;22.79;58.29;101920.88;5050240;28;45260;-60
2021/08/13 07:32:14;;;;;;;;;6.00;6.00;;;;;22.86;58.46;101916.97;5048527;28;45330;-60
2021/08/13 07:34:39;;;;;;;;;9.75;7.50;;;;;23.04;56.97;101928.28;5048465;28;45292;-60
2021/08/13 07:37:05;;;;;;;;;9.75;6.25;;;;;23.08;57.22;101939.53;5055555;28;45262;-60
2021/08/13 07:39:30;;;;;;;;;4.00;4.00;;;;;23.13;56.75;101937.44;5055210;28;45466;-60
2021/08/13 07:41:55;;;;;;;;;54.00;43.50;;;;;23.19;56.88;101942.38;5054808;28;45222;-60
2021/08/13 07:44:21;;;;;;;;;6.25;4.00;;;;;23.24;56.29;101943.81;5058581;28;45401;-60
2021/08/13 07:46:46;;;;;;;;;3.00;3.00;;;;;23.31;57.16;101954.88;5057691;28;45218;-60
2021/08/13 07:49:11;;;;;;;;;7.50;6.25;;;;;23.35;56.62;101956.41;5058618;28;45240;-60
2021/08/13 07:51:37;;;;;;;;;7.00;5.25;;;;;23.32;56.31;101952.16;5058324;28;46331;-60
2021/08/13 07:54:03;;;;;;;;;9.00;6.75;;;;;23.30;56.34;101958.50;5058541;28;45881;-60
2021/08/13 07:56:28;;;;;;;;;6.00;4.50;;;;;23.22;56.25;101963.41;5058633;28;45322;-59
2021/08/13 07:58:53;;;;;;;;;8.00;6.75;;;;;23.19;56.53;101960.94;5058660;28;45312;-62
2021/08/13 08:01:19;;;;;;;;;8.00;6.25;;;;;23.24;56.84;101962.38;5058331;28;45265;-59
2021/08/13 08:03:44;;;;;;;;;8.75;6.75;;;;;23.42;56.58;101970.97;5058296;28;46041;-60
2021/08/13 08:06:09;;;;;;;;;11.00;9.25;;;;;23.54;56.78;101972.88;5057907;28;45283;-59
2021/08/13 08:08:35;;;;;;;;;8.00;5.75;;;;;23.62;56.22;101981.25;5062108;28;45443;-60
2021/08/13 08:11:00;;;;;;;;;8.50;5.75;;;;;23.78;55.69;101985.59;5061750;28;45453;-60
2021/08/13 08:13:26;;;;;;;;;5.00;5.00;;;;;24.00;54.92;101987.72;5061755;28;46084;-58
2021/08/13 08:15:51;;;;;;;;;7.25;5.25;;;;;24.16;54.88;101991.97;5061501;28;45538;-57
2021/08/13 08:18:19;;;;;;;;;7.75;4.75;;;;;24.31;55.58;101991.97;5061660;28;45500;-62
2021/08/13 08:20:46;;;;;;;;;4.75;3.75;;;;;24.41;54.25;101998.38;5061610;28;45334;-60
2021/08/13 08:23:11;;;;;;;;;7.50;6.50;;;;;24.55;53.86;101993.00;5061788;28;45965;-62
2021/08/13 08:25:37;;;;;;;;;4.00;4.00;;;;;24.55;53.61;101995.66;5062023;28;45121;-61
2021/08/13 08:28:03;;;;;;;;;4.00;4.00;;;;;24.56;53.36;101997.34;5061994;28;45246;-59
2021/08/13 08:30:29;;;;;;;;;7.75;6.75;;;;;24.56;53.11;101995.56;5061523;28;45330;-59
2021/08/13 08:32:54;;;;;;;;;5.25;5.00;;;;;24.56;52.59;102000.00;5061576;28;46082;-58
2021/08/13 08:35:20;;;;;;;;;4.50;4.50;;;;;24.52;52.34;102003.84;5061021;28;45162;-57
2021/08/13 08:37:57;;;;;;;;;6.75;5.00;;;;;24.46;52.11;102006.91;5062404;28;45394;-58
2021/08/13 08:40:26;;;;;;;;;4.00;3.50;;;;;24.42;51.95;102003.56;5061643;28;45266;-61
2021/08/13 08:42:54;;;;;;;;;3.50;3.50;;;;;24.45;51.67;102003.41;5061959;28;46009;-63
2021/08/13 08:45:20;;;;;;;;;3.00;3.00;;;;;24.47;50.71;101990.88;5076284;27;45287;-62
2021/08/13 08:47:47;;;;;;;;;3.00;2.25;;;;;24.39;52.12;101993.16;5061890;28;45154;-62
2021/08/13 08:50:13;;;;;;;;;4.25;3.00;;;;;24.46;51.21;102002.44;5061888;28;45337;-61
2021/08/13 08:52:39;;;;;;;;;3.00;3.00;;;;;24.54;51.03;102004.59;5061975;28;45404;-60
2021/08/13 08:55:07;;;;;;;;;3.25;3.00;;;;;24.63;50.83;101995.13;5061476;28;45741;-59
2021/08/13 08:57:34;;;;;;;;;2.75;2.75;;;;;24.77;50.34;101992.41;5061720;28;45244;-63
2021/08/13 09:00:00;;;;;;;;;5.50;4.00;;;;;24.85;51.09;101976.81;5061473;28;45291;-61
2021/08/13 09:02:25;;;;;;;;;7.00;5.00;;;;;25.05;50.71;101989.63;5061356;28;46017;-61
2021/08/13 09:04:51;;;;;;;;;24.00;11.25;;;;;25.23;50.01;101986.63;5060988;28;45203;-60
2021/08/13 09:07:16;;;;;;;;;10.75;7.75;;;;;25.40;50.80;101971.19;5061160;28;45469;-61
2021/08/13 09:09:41;;;;;;;;;5.75;4.00;;;;;25.48;49.59;101973.34;5061302;28;45473;-60
2021/08/13 09:12:07;;;;;;;;;4.00;4.00;;;;;25.54;48.54;101980.88;5059664;28;45359;-60
2021/08/13 09:14:41;;;;;;;;;46.00;21.50;;;;;25.54;49.41;101986.19;5060953;28;45602;-62
2021/08/13 09:17:06;;;;;;;;;5.50;4.50;;;;;25.55;49.02;101981.72;5061307;28;45364;-59
2021/08/13 09:19:47;;;;;;;;;6.00;3.75;;;;;25.59;48.04;101986.72;5060571;28;45535;-60
2021/08/13 09:22:18;;;;;;;;;4.75;4.00;;;;;25.66;48.16;101984.50;5061136;28;46891;-59
2021/08/13 09:24:48;;;;;;;;;5.00;5.00;;;;;25.70;47.87;101992.19;5059950;28;45332;-61
2021/08/13 09:27:19;;;;;;;;;6.00;4.25;;;;;25.73;48.61;101999.94;5059725;28;45492;-62
2021/08/13 09:30:07;;;;;;;;;7.50;6.50;;;;;25.78;47.15;101995.13;5060970;28;45421;-62
2021/08/13 09:32:33;;;;;;;;;6.00;6.00;;;;;25.84;47.16;101995.69;5059769;28;45375;-68
2021/08/13 09:34:58;;;;;;;;;6.00;5.00;;;;;25.82;46.89;101986.91;5042612;28;45345;-67
2021/08/13 09:37:24;;;;;;;;;9.00;6.00;;;;;25.84;47.70;101991.19;5059514;28;45208;-64
2021/08/13 09:39:57;;;;;;;;;10.75;6.50;;;;;25.93;47.24;101979.00;5060596;28;45462;-68
2021/08/13 09:42:33;;;;;;;;;7.00;5.00;;;;;26.05;46.94;101978.13;5059858;28;46212;-61
2021/08/13 09:45:00;;;;;;;;;4.25;4.25;;;;;26.02;46.70;101967.69;5060023;28;45302;-63
2021/08/13 09:47:42;;;;;;;;;5.00;5.00;;;;;25.97;46.21;101980.50;5060215;28;45320;-62
2021/08/13 09:50:09;;;;;;;;;7.00;5.50;;;;;25.99;46.88;101975.91;5060288;28;45523;-61
2021/08/13 09:52:34;;;;;;;;;9.50;7.00;;;;;26.05;47.14;101981.66;5059837;28;46168;-61
2021/08/13 09:55:14;;;;;;;;;6.00;5.00;;;;;26.14;46.98;101977.44;5059835;28;45416;-65
2021/08/13 09:57:42;;;;;;;;;5.00;5.00;;;;;26.18;45.90;101967.41;5060911;28;45337;-67
2021/08/13 10:00:09;;;;;;;;;6.00;4.50;;;;;26.21;46.03;101978.69;5075029;28;45805;-62
2021/08/13 10:02:38;;;;;;;;;6.00;5.00;;;;;26.20;46.63;101982.31;5059860;28;46504;-65
2021/08/13 10:05:26;;;;;;;;;15.00;11.50;;;;;26.23;46.91;101981.22;5059790;28;45357;-62
2021/08/13 10:07:54;;;;;;;;;5.75;4.50;;;;;26.24;46.02;101978.50;5059483;28;45240;-62
2021/08/13 10:10:28;;;;;;;;;12.75;7.50;;;;;26.30;46.32;101974.50;5060124;28;45472;-62
2021/08/13 10:12:54;;;;;;;;;7.25;5.00;;;;;26.37;45.99;101971.28;5058855;28;46008;-62
2021/08/13 10:15:28;;;;;;;;;7.00;6.00;;;;;26.45;45.34;101978.75;5057981;28;45448;-62
2021/08/13 10:17:58;;;;;;;;;8.25;8.25;;;;;26.49;46.71;101974.03;5052707;28;45446;-63
2021/08/13 10:20:25;;;;;;;;;6.00;5.00;;;;;26.47;45.68;101967.97;5048985;28;45399;-68
2021/08/13 10:22:51;;;;;;;;;12.50;6.75;;;;;26.55;45.67;101960.22;5064158;28;47312;-63
2021/08/13 10:25:18;;;;;;;;;8.25;6.75;;;;;26.57;45.27;101967.13;5051045;28;46002;-63
2021/08/13 10:27:43;;;;;;;;;7.75;7.00;;;;;26.66;45.75;101963.78;5051549;28;45545;-62
2021/08/13 10:30:09;;;;;;;;;7.00;6.25;;;;;26.75;45.25;101961.38;5048700;28;45446;-64
2021/08/13 10:32:36;;;;;;;;;9.00;7.50;;;;;26.83;45.76;101969.63;5050087;28;46155;-63
2021/08/13 10:35:02;;;;;;;;;10.25;8.50;;;;;26.91;45.61;101969.91;5053248;28;45575;-64
2021/08/13 10:37:28;;;;;;;;;10.00;8.75;;;;;26.96;45.65;101975.72;5051089;28;45296;-59
2021/08/13 10:39:55;;;;;;;;;21.25;11.50;;;;;27.03;45.36;101976.13;5051953;28;45224;-62
2021/08/13 10:42:24;;;;;;;;;10.00;7.50;;;;;27.02;44.34;101979.75;5049105;28;46126;-59
2021/08/13 10:45:02;;;;;;;;;6.50;6.50;;;;;27.00;44.84;101971.03;5055358;28;45244;-75
2021/08/13 10:47:34;;;;;;;;;6.00;6.00;;;;;27.11;44.92;101973.72;5053545;28;45332;-59
2021/08/13 10:50:01;;;;;;;;;10.75;9.50;;;;;27.22;44.69;101955.88;5048566;28;45314;-60
2021/08/13 10:52:39;;;;;;;;;10.00;8.00;;;;;27.35;44.36;101976.28;5048900;28;45376;-60
2021/08/13 10:55:07;;;;;;;;;10.50;8.75;;;;;27.36;44.53;101970.00;5052023;28;45419;-58
2021/08/13 10:57:48;;;;;;;;;9.50;7.75;;;;;27.43;44.56;101972.06;5049111;28;45322;-58
2021/08/13 11:00:14;;;;;;;;;10.75;10.50;;;;;27.47;43.86;101970.84;5050135;28;45517;-59
2021/08/13 11:02:39;;;;;;;;;15.75;9.50;;;;;27.42;44.03;101973.00;5046438;28;45470;-58
2021/08/13 11:05:05;;;;;;;;;11.75;10.25;;;;;27.40;43.47;101972.28;5043621;28;45408;-57
2021/08/13 11:07:59;;;;;;;;;11.25;10.75;;;;;27.39;44.24;101975.94;5052827;28;45662;-58
2021/08/13 11:10:37;;;;;;;;;9.50;8.75;;;;;27.39;43.80;101970.59;5047453;28;45556;-58
2021/08/13 11:13:17;;;;;;;;;12.50;8.75;;;;;27.41;44.34;101965.97;5051395;28;45536;-58
2021/08/13 11:15:43;;;;;;;;;11.00;10.25;;;;;27.59;43.88;101971.69;5042902;28;45319;-58
2021/08/13 11:18:25;;;;;;;;;8.50;8.50;;;;;27.72;43.45;101968.91;5044849;28;45541;-58